createdAt,value
2023-02-15T00:00:28.415Z,102398.84
2023-02-15T00:03:30.470Z,102395.91
2023-02-15T00:06:32.522Z,102385.53
2023-02-15T00:09:36.202Z,102384.38
2023-02-15T00:12:38.813Z,102385.09
2023-02-15T00:15:40.942Z,102391.59
2023-02-15T00:18:43.040Z,102389.28
2023-02-15T00:21:45.763Z,102394.38
2023-02-15T00:24:47.896Z,102401.25
2023-02-15T00:27:50.016Z,102402.25
2023-02-15T00:30:52.042Z,102400.78
2023-02-15T00:33:54.235Z,102400.94
2023-02-15T00:36:56.384Z,102401.69
2023-02-15T00:39:59.156Z,102395.31
2023-02-15T00:43:01.844Z,102399.13
2023-02-15T00:46:06.205Z,102378.06
2023-02-15T00:49:08.231Z,102396.31
2023-02-15T00:52:10.986Z,102398.56
2023-02-15T00:55:12.981Z,102402.41
2023-02-15T00:58:15.620Z,102399.13
2023-02-15T01:01:19.921Z,102403.28
2023-02-15T01:04:21.943Z,102403.53
2023-02-15T01:07:24.057Z,102389.84
2023-02-15T01:10:27.300Z,102404.09
2023-02-15T01:13:30.878Z,102399.25
2023-02-15T01:16:32.911Z,102392.91
2023-02-15T01:19:35.318Z,102407.97
2023-02-15T01:22:38.832Z,102393.81
2023-02-15T01:25:40.999Z,102403.84
2023-02-15T01:28:43.914Z,102404.69
2023-02-15T01:31:46.112Z,102403.97
2023-02-15T01:34:50.171Z,102403.28
2023-02-15T01:37:54.819Z,102408.97
2023-02-15T01:41:16.924Z,102400.09
2023-02-15T01:44:58.843Z,102413.25
2023-02-15T01:48:28.418Z,102398.59
2023-02-15T01:51:34.437Z,102400.13
2023-02-15T01:54:39.265Z,102394.41
2023-02-15T01:57:43.164Z,102403.84
2023-02-15T02:00:47.099Z,102398.13
2023-02-15T02:04:25.177Z,102410.50
2023-02-15T02:07:33.607Z,102404.69
2023-02-15T02:10:35.638Z,102402.94
2023-02-15T02:13:37.816Z,102395.09
2023-02-15T02:16:48.588Z,102397.97
2023-02-15T02:19:56.323Z,102392.72
2023-02-15T02:23:07.215Z,102398.66
2023-02-15T02:26:40.085Z,102402.72
2023-02-15T02:30:21.010Z,102400.28
2023-02-15T02:33:43.522Z,102399.44
2023-02-15T02:36:59.428Z,102403.66
2023-02-15T02:40:07.227Z,102413.72
2023-02-15T02:43:20.543Z,102414.34
2023-02-15T02:46:52.110Z,102423.72
2023-02-15T02:50:00.910Z,102415.59
2023-02-15T02:53:03.000Z,102425.22
2023-02-15T02:56:24.910Z,102412.53
2023-02-15T02:59:38.004Z,102413.75
2023-02-15T03:02:45.078Z,102427.22
2023-02-15T03:05:52.356Z,102432.25
2023-02-15T03:09:02.920Z,102424.94
2023-02-15T03:12:05.382Z,102433.94
2023-02-15T03:15:22.487Z,102429.94
2023-02-15T03:18:32.331Z,102424.72
2023-02-15T03:22:20.813Z,102431.03
2023-02-15T03:25:27.821Z,102424.97
2023-02-15T03:28:37.947Z,102428.06
2023-02-15T03:31:45.477Z,102403.38
2023-02-15T03:34:47.771Z,102422.16
2023-02-15T03:37:55.873Z,102427.00
2023-02-15T03:41:12.478Z,102417.44
2023-02-15T03:44:32.017Z,102437.81
2023-02-15T03:47:39.154Z,102439.06
2023-02-15T03:51:00.631Z,102440.50
2023-02-15T03:54:13.694Z,102425.03
2023-02-15T03:57:37.486Z,102444.34
2023-02-15T04:01:05.581Z,102446.22
2023-02-15T04:04:25.262Z,102444.34
2023-02-15T04:07:27.622Z,102436.44
2023-02-15T04:10:48.361Z,102446.19
2023-02-15T04:13:57.473Z,102429.78
2023-02-15T04:16:59.809Z,102429.78
2023-02-15T04:20:20.651Z,102446.50
2023-02-15T04:23:41.465Z,102449.50
2023-02-15T04:26:43.549Z,102442.91
2023-02-15T04:29:45.809Z,102451.75
2023-02-15T04:32:48.673Z,102446.19
2023-02-15T04:35:50.727Z,102452.88
2023-02-15T04:38:52.869Z,102459.13
2023-02-15T04:41:54.953Z,102462.41
2023-02-15T04:44:57.639Z,102460.31
2023-02-15T04:47:59.763Z,102455.19
2023-02-15T04:51:07.844Z,102455.75
2023-02-15T04:54:09.958Z,102476.38
2023-02-15T04:57:12.044Z,102478.59
2023-02-15T05:00:14.437Z,102494.56
2023-02-15T05:03:17.649Z,102488.34
2023-02-15T05:06:21.906Z,102487.03
2023-02-15T05:09:23.883Z,102489.38
2023-02-15T05:12:25.961Z,102499.53
2023-02-15T05:15:28.028Z,102496.56
2023-02-15T05:18:30.157Z,102501.25
2023-02-15T05:21:33.515Z,102512.06
2023-02-15T05:24:54.146Z,102510.25
2023-02-15T05:28:14.922Z,102517.81
2023-02-15T05:31:20.642Z,102520.00
2023-02-15T05:34:22.778Z,102519.31
2023-02-15T05:37:24.965Z,102528.03
2023-02-15T05:40:27.255Z,102538.75
2023-02-15T05:43:30.593Z,102531.66
2023-02-15T05:46:32.896Z,102527.56
2023-02-15T05:49:35.080Z,102531.38
2023-02-15T05:52:37.178Z,102524.25
2023-02-15T05:55:40.175Z,102537.09
2023-02-15T05:58:42.854Z,102523.38
2023-02-15T06:01:44.850Z,102529.63
2023-02-15T06:04:46.882Z,102506.44
2023-02-15T06:07:49.196Z,102539.94
2023-02-15T06:10:51.444Z,102528.09
2023-02-15T06:13:53.495Z,102525.25
2023-02-15T06:16:55.413Z,102526.50
2023-02-15T06:19:57.565Z,102528.75
2023-02-15T06:22:59.531Z,102526.50
2023-02-15T06:26:01.860Z,102529.75
2023-02-15T06:29:04.270Z,102528.03
2023-02-15T06:32:06.906Z,102524.75
2023-02-15T06:35:09.040Z,102538.56
2023-02-15T06:38:12.992Z,102535.56
2023-02-15T06:41:15.271Z,102544.25
2023-02-15T06:44:18.508Z,102535.59
2023-02-15T06:47:20.685Z,102553.81
2023-02-15T06:50:22.710Z,102527.22
2023-02-15T06:53:24.794Z,102528.97
2023-02-15T06:56:27.135Z,102519.91
2023-02-15T06:59:29.159Z,102507.50
2023-02-15T07:02:31.116Z,102508.66
2023-02-15T07:05:35.406Z,102512.09
2023-02-15T07:08:38.802Z,102515.59
2023-02-15T07:11:58.914Z,102516.66
2023-02-15T07:15:00.968Z,102504.31
2023-02-15T07:18:02.970Z,102511.59
2023-02-15T07:21:05.215Z,102506.41
2023-02-15T07:24:07.628Z,102525.25
2023-02-15T07:27:09.633Z,102522.94
2023-02-15T07:30:14.772Z,102526.72
2023-02-15T07:33:28.068Z,102519.97
2023-02-15T07:36:30.031Z,102512.41
2023-02-15T07:39:32.051Z,102513.69
2023-02-15T07:42:34.021Z,102502.41
2023-02-15T07:45:36.079Z,102518.50
2023-02-15T07:48:39.329Z,102497.34
2023-02-15T07:51:42.310Z,102508.09
2023-02-15T07:54:44.357Z,102507.88
2023-02-15T07:57:48.342Z,102504.44
2023-02-15T08:00:59.689Z,102508.91
2023-02-15T08:04:03.953Z,102517.94
2023-02-15T08:07:06.493Z,102518.88
2023-02-15T08:10:13.235Z,102524.59
2023-02-15T08:13:16.239Z,102538.56
2023-02-15T08:16:21.657Z,102540.22
2023-02-15T08:19:32.950Z,102535.75
2023-02-15T08:22:35.061Z,102524.59
2023-02-15T08:25:37.027Z,102523.72
2023-02-15T08:28:39.982Z,102538.03
2023-02-15T08:31:43.264Z,102533.22
2023-02-15T08:34:45.349Z,102540.06
2023-02-15T08:37:47.612Z,102525.91
2023-02-15T08:40:49.617Z,102530.81
2023-02-15T08:43:57.024Z,102525.16
2023-02-15T08:47:04.717Z,102528.41
2023-02-15T08:50:07.613Z,102531.03
2023-02-15T08:53:09.876Z,102521.75
2023-02-15T08:56:13.119Z,102515.31
2023-02-15T08:59:23.166Z,102530.38
2023-02-15T09:02:25.257Z,102516.28
2023-02-15T09:05:27.429Z,102517.22
2023-02-15T09:08:30.113Z,102515.88
2023-02-15T09:11:36.234Z,102511.06
2023-02-15T09:14:38.393Z,102508.22
2023-02-15T09:17:40.418Z,102526.13
2023-02-15T09:20:42.509Z,102515.09
2023-02-15T09:23:47.677Z,102524.66
2023-02-15T09:26:50.336Z,102528.66
2023-02-15T09:29:52.424Z,102514.66
2023-02-15T09:32:54.591Z,102515.00
2023-02-15T09:35:58.012Z,102491.97
2023-02-15T09:39:04.836Z,102517.09
2023-02-15T09:42:34.747Z,102511.88
2023-02-15T09:46:06.178Z,102480.03
2023-02-15T09:49:22.126Z,102503.63
2023-02-15T09:52:44.098Z,102491.19
2023-02-15T09:56:39.863Z,102493.06
2023-02-15T10:00:00.452Z,102471.63
2023-02-15T10:03:22.016Z,102493.59
2023-02-15T10:06:45.291Z,102492.41
2023-02-15T10:09:53.661Z,102495.47
2023-02-15T10:13:22.539Z,102501.94
2023-02-15T10:16:42.586Z,102495.06
2023-02-15T10:19:50.834Z,102506.50
2023-02-15T10:23:11.204Z,102500.56
2023-02-15T10:26:44.534Z,102499.19
2023-02-15T10:30:08.330Z,102505.59
2023-02-15T10:33:19.208Z,102512.41
2023-02-15T10:36:34.929Z,102494.72
2023-02-15T10:39:55.369Z,102485.28
2023-02-15T10:43:23.049Z,102495.03
2023-02-15T10:46:56.417Z,102490.03
2023-02-15T10:50:37.643Z,102481.28
2023-02-15T10:53:52.176Z,102484.81
2023-02-15T10:57:12.646Z,102493.31
2023-02-15T11:00:32.188Z,102484.69
2023-02-15T11:04:17.458Z,102465.13
2023-02-15T11:07:36.457Z,102473.78
2023-02-15T11:10:53.407Z,102466.47
2023-02-15T11:14:03.032Z,102464.84
2023-02-15T11:17:15.678Z,102461.06
2023-02-15T11:20:17.834Z,102470.34
2023-02-15T11:23:23.178Z,102457.56
2023-02-15T11:26:26.302Z,102477.47
2023-02-15T11:29:40.482Z,102461.84
2023-02-15T11:32:53.334Z,102452.22
2023-02-15T11:36:08.000Z,102461.66
2023-02-15T11:39:17.286Z,102449.50
2023-02-15T11:42:24.664Z,102448.41
2023-02-15T11:45:30.398Z,102457.38
2023-02-15T11:48:33.738Z,102455.91
2023-02-15T11:51:36.716Z,102461.06
2023-02-15T11:54:43.994Z,102440.13
2023-02-15T11:58:02.499Z,102451.28
2023-02-15T12:01:36.071Z,102438.63
2023-02-15T12:04:41.736Z,102438.75
2023-02-15T12:07:50.653Z,102448.72
2023-02-15T12:11:01.988Z,102448.94
2023-02-15T12:14:07.180Z,102443.84
2023-02-15T12:17:14.633Z,102437.03
2023-02-15T12:20:16.682Z,102439.03
2023-02-15T12:23:19.892Z,102448.06
2023-02-15T12:26:38.259Z,102431.06
2023-02-15T12:30:02.231Z,102440.66
2023-02-15T12:33:11.669Z,102437.81
2023-02-15T12:36:20.909Z,102419.91
2023-02-15T12:39:33.132Z,102440.84
2023-02-15T12:42:46.037Z,102425.47
2023-02-15T12:45:57.071Z,102423.06
2023-02-15T12:49:11.423Z,102424.72
2023-02-15T12:52:19.177Z,102420.84
2023-02-15T12:55:27.612Z,102430.94
2023-02-15T12:58:31.389Z,102425.31
2023-02-15T13:01:34.706Z,102420.34
2023-02-15T13:04:37.000Z,102427.03
2023-02-15T13:07:39.099Z,102408.75
2023-02-15T13:11:03.370Z,102416.03
2023-02-15T13:14:23.624Z,102408.56
2023-02-15T13:17:31.096Z,102420.03
2023-02-15T13:20:35.549Z,102417.94
2023-02-15T13:23:40.270Z,102414.16
2023-02-15T13:26:48.305Z,102392.75
2023-02-15T13:29:59.557Z,102406.63
2023-02-15T13:33:16.378Z,102413.84
2023-02-15T13:36:44.482Z,102420.91
2023-02-15T13:39:50.058Z,102413.91
2023-02-15T13:43:04.319Z,102422.28
2023-02-15T13:46:24.775Z,102424.78
2023-02-15T13:49:45.077Z,102418.00
2023-02-15T13:53:13.043Z,102400.50
2023-02-15T13:56:53.294Z,102422.94
2023-02-15T14:00:14.906Z,102425.25
2023-02-15T14:03:49.769Z,102408.38
2023-02-15T14:07:06.253Z,102412.28
2023-02-15T14:10:17.138Z,102415.41
2023-02-15T14:13:51.162Z,102420.34
2023-02-15T14:17:23.591Z,102419.16
2023-02-15T14:20:52.863Z,102423.03
2023-02-15T14:24:28.257Z,102421.41
2023-02-15T14:27:48.593Z,102430.97
2023-02-15T14:30:52.347Z,102415.53
2023-02-15T14:33:57.148Z,102424.53
2023-02-15T14:36:59.759Z,102432.59
2023-02-15T14:40:32.303Z,102437.56
2023-02-15T14:43:52.754Z,102436.31
2023-02-15T14:46:57.468Z,102439.47
2023-02-15T14:49:59.577Z,102429.84
2023-02-15T14:53:23.320Z,102435.75
2023-02-15T14:56:27.571Z,102452.34
2023-02-15T14:59:46.138Z,102427.09
2023-02-15T15:02:51.575Z,102453.44
2023-02-15T15:06:00.366Z,102463.31
2023-02-15T15:09:29.651Z,102448.00
2023-02-15T15:12:34.541Z,102454.41
2023-02-15T15:15:53.163Z,102453.06
2023-02-15T15:19:10.576Z,102438.25
2023-02-15T15:22:27.443Z,102453.50
2023-02-15T15:25:46.814Z,102465.72
2023-02-15T15:28:51.814Z,102460.28
2023-02-15T15:31:57.668Z,102466.06
2023-02-15T15:35:14.964Z,102465.19
2023-02-15T15:38:24.666Z,102470.78
2023-02-15T15:41:43.169Z,102475.47
2023-02-15T15:45:24.094Z,102463.84
2023-02-15T15:48:39.303Z,102469.38
2023-02-15T15:51:43.505Z,102479.44
2023-02-15T15:54:48.765Z,102477.06
2023-02-15T15:57:57.960Z,102475.72
2023-02-15T16:01:10.187Z,102480.19
2023-02-15T16:04:25.353Z,102485.06
2023-02-15T16:07:27.817Z,102492.44
2023-02-15T16:10:33.769Z,102489.91
2023-02-15T16:13:37.504Z,102482.81
2023-02-15T16:16:43.962Z,102499.50
2023-02-15T16:19:49.392Z,102506.34
2023-02-15T16:22:58.472Z,102507.66
2023-02-15T16:26:15.605Z,102512.44
2023-02-15T16:29:20.439Z,102508.00
2023-02-15T16:32:28.007Z,102503.69
2023-02-15T16:35:30.253Z,102514.56
2023-02-15T16:38:58.335Z,102521.97
2023-02-15T16:42:03.240Z,102512.78
2023-02-15T16:45:09.019Z,102521.16
2023-02-15T16:48:23.614Z,102516.56
2023-02-15T16:51:29.010Z,102524.22
2023-02-15T16:54:32.563Z,102511.97
2023-02-15T16:57:38.271Z,102516.34
2023-02-15T17:00:42.205Z,102516.97
2023-02-15T17:03:44.454Z,102513.06
2023-02-15T17:07:04.909Z,102506.81
2023-02-15T17:10:31.864Z,102517.09
2023-02-15T17:13:33.863Z,102519.50
2023-02-15T17:16:51.437Z,102512.16
2023-02-15T17:19:56.184Z,102523.94
2023-02-15T17:22:58.769Z,102527.22
2023-02-15T17:26:12.312Z,102532.78
2023-02-15T17:29:20.586Z,102531.94
2023-02-15T17:32:26.243Z,102537.13
2023-02-15T17:35:35.644Z,102526.66
2023-02-15T17:38:40.541Z,102526.75
2023-02-15T17:41:42.843Z,102501.44
2023-02-15T17:44:44.893Z,102536.94
2023-02-15T17:47:48.983Z,102546.19
2023-02-15T17:50:52.219Z,102545.00
2023-02-15T17:54:16.092Z,102544.53
2023-02-15T17:57:18.288Z,102517.50
2023-02-15T18:00:39.076Z,102534.59
2023-02-15T18:04:02.854Z,102544.66
2023-02-15T18:07:27.482Z,102542.22
2023-02-15T18:10:52.872Z,102537.56
2023-02-15T18:14:03.881Z,102542.19
2023-02-15T18:17:06.210Z,102532.78
2023-02-15T18:20:32.176Z,102544.72
2023-02-15T18:23:34.527Z,102549.75
2023-02-15T18:26:37.887Z,102554.81
2023-02-15T18:29:41.406Z,102547.56
2023-02-15T18:32:46.162Z,102552.22
2023-02-15T18:35:52.275Z,102535.72
2023-02-15T18:38:58.103Z,102546.56
2023-02-15T18:42:04.535Z,102546.19
2023-02-15T18:45:37.432Z,102552.41
2023-02-15T18:48:39.545Z,102546.00
2023-02-15T18:51:43.076Z,102549.06
2023-02-15T18:54:46.790Z,102542.56
2023-02-15T18:57:51.631Z,102550.56
2023-02-15T19:00:56.048Z,102548.16
2023-02-15T19:03:59.928Z,102551.09
2023-02-15T19:07:03.360Z,102553.06
2023-02-15T19:10:14.636Z,102561.03
2023-02-15T19:13:19.808Z,102559.88
2023-02-15T19:16:43.443Z,102557.06
2023-02-15T19:19:49.404Z,102568.28
2023-02-15T19:22:56.468Z,102539.16
2023-02-15T19:26:02.345Z,102563.69
2023-02-15T19:29:11.253Z,102558.53
2023-02-15T19:32:18.006Z,102557.38
2023-02-15T19:35:30.244Z,102567.03
2023-02-15T19:38:37.268Z,102552.31
2023-02-15T19:41:42.824Z,102535.59
2023-02-15T19:44:48.827Z,102539.38
2023-02-15T19:47:55.658Z,102554.91
2023-02-15T19:51:01.298Z,102551.50
2023-02-15T19:54:03.640Z,102543.63
2023-02-15T19:57:08.433Z,102551.66
2023-02-15T20:00:29.951Z,102545.69
2023-02-15T20:03:33.298Z,102541.94
2023-02-15T20:06:35.301Z,102539.69
2023-02-15T20:09:40.923Z,102557.94
2023-02-15T20:12:43.094Z,102552.13
2023-02-15T20:15:46.126Z,102554.16
2023-02-15T20:18:48.591Z,102559.00
2023-02-15T20:21:54.682Z,102547.72
2023-02-15T20:24:57.196Z,102554.16
2023-02-15T20:28:01.517Z,102548.63
2023-02-15T20:31:04.007Z,102554.03
2023-02-15T20:34:06.208Z,102563.88
2023-02-15T20:37:26.559Z,102551.44
2023-02-15T20:40:32.767Z,102554.13
2023-02-15T20:43:34.854Z,102568.75
2023-02-15T20:46:36.845Z,102561.38
2023-02-15T20:49:39.418Z,102560.31
2023-02-15T20:52:44.140Z,102551.09
2023-02-15T20:55:46.173Z,102549.75
2023-02-15T20:58:48.643Z,102541.03
2023-02-15T21:01:52.513Z,102550.91
2023-02-15T21:04:55.658Z,102552.38
2023-02-15T21:07:59.284Z,102550.19
2023-02-15T21:11:01.976Z,102544.59
2023-02-15T21:14:04.262Z,102546.91
2023-02-15T21:17:06.698Z,102535.69
2023-02-15T21:20:14.194Z,102545.66
2023-02-15T21:23:19.980Z,102538.91
2023-02-15T21:26:23.185Z,102545.31
2023-02-15T21:29:28.190Z,102550.34
2023-02-15T21:32:32.507Z,102543.97
2023-02-15T21:35:34.679Z,102551.28
2023-02-15T21:38:37.104Z,102543.22
2023-02-15T21:41:58.489Z,102549.94
2023-02-15T21:45:19.419Z,102555.53
2023-02-15T21:48:22.614Z,102553.38
2023-02-15T21:51:44.582Z,102566.59
2023-02-15T21:54:47.142Z,102561.75
2023-02-15T21:57:49.125Z,102564.47
2023-02-15T22:00:54.696Z,102555.13
2023-02-15T22:03:58.854Z,102562.72
2023-02-15T22:07:00.869Z,102559.91
2023-02-15T22:10:03.091Z,102554.63
2023-02-15T22:13:05.750Z,102528.69
2023-02-15T22:16:14.740Z,102553.19
2023-02-15T22:19:16.885Z,102550.31
2023-02-15T22:22:18.995Z,102553.53
2023-02-15T22:25:24.084Z,102551.94
2023-02-15T22:28:34.800Z,102546.97
2023-02-15T22:31:36.968Z,102546.41
2023-02-15T22:34:39.411Z,102534.28
2023-02-15T22:37:42.761Z,102538.44
2023-02-15T22:40:46.806Z,102544.41
2023-02-15T22:43:49.498Z,102538.88
2023-02-15T22:46:52.235Z,102525.94
2023-02-15T22:49:57.175Z,102536.28
2023-02-15T22:53:01.275Z,102540.31
2023-02-15T22:56:07.845Z,102528.31
2023-02-15T22:59:16.308Z,102537.16
2023-02-15T23:02:18.495Z,102529.22
2023-02-15T23:05:24.161Z,102536.13
2023-02-15T23:08:26.143Z,102539.03
2023-02-15T23:11:28.903Z,102540.09
2023-02-15T23:14:36.689Z,102535.91
2023-02-15T23:17:38.706Z,102526.28
2023-02-15T23:20:40.897Z,102534.47
2023-02-15T23:23:47.788Z,102535.41
2023-02-15T23:26:50.798Z,102535.19
2023-02-15T23:29:52.801Z,102524.84
2023-02-15T23:32:58.535Z,102526.53
2023-02-15T23:36:00.518Z,102515.44
2023-02-15T23:39:32.868Z,102523.88
2023-02-15T23:42:36.006Z,102540.69
2023-02-15T23:45:39.592Z,102531.00
2023-02-15T23:48:42.638Z,102524.63
2023-02-15T23:51:54.485Z,102524.34
2023-02-15T23:54:56.476Z,102501.69
2023-02-15T23:57:58.600Z,102521.84
